sensor_id;sensor_type;location;lat;lon;timestamp;P1;durP1;ratioP1;P2;durP2;ratioP2
20531;SDS011;10424;52.102;8.084;2023-07-09T00:00:12;9.68;;;5.90;;
20531;SDS011;10424;52.102;8.084;2023-07-09T00:02:41;8.85;;;6.07;;
20531;SDS011;10424;52.102;8.084;2023-07-09T00:05:09;10.32;;;6.05;;
20531;SDS011;10424;52.102;8.084;2023-07-09T00:07:38;13.63;;;6.05;;
20531;SDS011;10424;52.102;8.084;2023-07-09T00:10:08;8.82;;;5.90;;
20531;SDS011;10424;52.102;8.084;2023-07-09T00:12:40;8.95;;;5.90;;
20531;SDS011;10424;52.102;8.084;2023-07-09T00:15:08;6.88;;;5.57;;
20531;SDS011;10424;52.102;8.084;2023-07-09T00:17:35;9.68;;;5.53;;
20531;SDS011;10424;52.102;8.084;2023-07-09T00:20:07;10.02;;;5.78;;
20531;SDS011;10424;52.102;8.084;2023-07-09T00:22:39;9.05;;;5.88;;
20531;SDS011;10424;52.102;8.084;2023-07-09T00:25:07;9.15;;;5.88;;
20531;SDS011;10424;52.102;8.084;2023-07-09T00:27:38;7.53;;;5.38;;
20531;SDS011;10424;52.102;8.084;2023-07-09T00:30:11;12.65;;;5.80;;
20531;SDS011;10424;52.102;8.084;2023-07-09T00:32:41;9.55;;;5.53;;
20531;SDS011;10424;52.102;8.084;2023-07-09T00:35:10;8.48;;;6.00;;
20531;SDS011;10424;52.102;8.084;2023-07-09T00:37:40;9.93;;;5.80;;
20531;SDS011;10424;52.102;8.084;2023-07-09T00:40:09;9.07;;;5.45;;
20531;SDS011;10424;52.102;8.084;2023-07-09T00:42:37;9.68;;;5.72;;
20531;SDS011;10424;52.102;8.084;2023-07-09T00:45:07;8.02;;;5.70;;
20531;SDS011;10424;52.102;8.084;2023-07-09T00:47:42;8.57;;;5.80;;
20531;SDS011;10424;52.102;8.084;2023-07-09T00:50:15;8.85;;;6.20;;
20531;SDS011;10424;52.102;8.084;2023-07-09T00:52:49;7.70;;;5.47;;
20531;SDS011;10424;52.102;8.084;2023-07-09T00:55:19;8.82;;;5.80;;
20531;SDS011;10424;52.102;8.084;2023-07-09T00:57:48;10.18;;;5.45;;
20531;SDS011;10424;52.102;8.084;2023-07-09T01:00:21;7.20;;;5.45;;
20531;SDS011;10424;52.102;8.084;2023-07-09T01:02:49;7.93;;;5.65;;
20531;SDS011;10424;52.102;8.084;2023-07-09T01:05:18;6.75;;;5.43;;
20531;SDS011;10424;52.102;8.084;2023-07-09T01:07:46;9.68;;;5.47;;
20531;SDS011;10424;52.102;8.084;2023-07-09T01:10:13;8.65;;;5.60;;
20531;SDS011;10424;52.102;8.084;2023-07-09T01:12:41;11.85;;;6.25;;
20531;SDS011;10424;52.102;8.084;2023-07-09T01:15:09;10.18;;;5.43;;
20531;SDS011;10424;52.102;8.084;2023-07-09T01:17:37;8.02;;;5.60;;
20531;SDS011;10424;52.102;8.084;2023-07-09T01:20:06;8.45;;;5.70;;
20531;SDS011;10424;52.102;8.084;2023-07-09T01:22:36;6.95;;;5.30;;
20531;SDS011;10424;52.102;8.084;2023-07-09T01:25:04;7.70;;;5.57;;
20531;SDS011;10424;52.102;8.084;2023-07-09T01:27:36;8.82;;;5.40;;
20531;SDS011;10424;52.102;8.084;2023-07-09T01:30:04;7.88;;;5.30;;
20531;SDS011;10424;52.102;8.084;2023-07-09T01:32:32;11.43;;;5.50;;
20531;SDS011;10424;52.102;8.084;2023-07-09T01:35:03;7.47;;;5.30;;
20531;SDS011;10424;52.102;8.084;2023-07-09T01:37:32;8.85;;;5.35;;
20531;SDS011;10424;52.102;8.084;2023-07-09T01:40:01;7.32;;;5.40;;
20531;SDS011;10424;52.102;8.084;2023-07-09T01:42:30;7.28;;;5.47;;
20531;SDS011;10424;52.102;8.084;2023-07-09T01:44:57;10.93;;;5.90;;
20531;SDS011;10424;52.102;8.084;2023-07-09T01:47:26;7.53;;;5.70;;
20531;SDS011;10424;52.102;8.084;2023-07-09T01:49:54;10.55;;;5.75;;
20531;SDS011;10424;52.102;8.084;2023-07-09T01:52:23;8.30;;;6.28;;
20531;SDS011;10424;52.102;8.084;2023-07-09T01:54:50;9.25;;;6.25;;
20531;SDS011;10424;52.102;8.084;2023-07-09T01:57:20;9.05;;;6.25;;
20531;SDS011;10424;52.102;8.084;2023-07-09T01:59:48;8.73;;;6.32;;
20531;SDS011;10424;52.102;8.084;2023-07-09T02:02:16;8.38;;;6.13;;
20531;SDS011;10424;52.102;8.084;2023-07-09T02:04:46;9.10;;;6.22;;
20531;SDS011;10424;52.102;8.084;2023-07-09T02:07:14;10.43;;;5.82;;
20531;SDS011;10424;52.102;8.084;2023-07-09T02:09:42;7.95;;;6.15;;
20531;SDS011;10424;52.102;8.084;2023-07-09T02:12:10;9.90;;;6.22;;
20531;SDS011;10424;52.102;8.084;2023-07-09T02:14:39;7.75;;;6.10;;
20531;SDS011;10424;52.102;8.084;2023-07-09T02:17:07;8.50;;;6.43;;
20531;SDS011;10424;52.102;8.084;2023-07-09T02:19:34;10.73;;;6.43;;
20531;SDS011;10424;52.102;8.084;2023-07-09T02:22:02;8.52;;;6.05;;
20531;SDS011;10424;52.102;8.084;2023-07-09T02:24:29;11.77;;;6.38;;
20531;SDS011;10424;52.102;8.084;2023-07-09T02:26:57;9.55;;;6.22;;
20531;SDS011;10424;52.102;8.084;2023-07-09T02:29:25;9.63;;;6.65;;
20531;SDS011;10424;52.102;8.084;2023-07-09T02:31:55;9.23;;;6.70;;
20531;SDS011;10424;52.102;8.084;2023-07-09T02:34:24;11.20;;;6.03;;
20531;SDS011;10424;52.102;8.084;2023-07-09T02:36:52;10.85;;;6.55;;
20531;SDS011;10424;52.102;8.084;2023-07-09T02:39:19;8.32;;;6.55;;
20531;SDS011;10424;52.102;8.084;2023-07-09T02:41:47;9.35;;;6.43;;
20531;SDS011;10424;52.102;8.084;2023-07-09T02:44:14;8.45;;;6.05;;
20531;SDS011;10424;52.102;8.084;2023-07-09T02:46:41;9.52;;;6.68;;
20531;SDS011;10424;52.102;8.084;2023-07-09T02:49:11;13.90;;;7.13;;
20531;SDS011;10424;52.102;8.084;2023-07-09T02:51:38;13.82;;;6.88;;
20531;SDS011;10424;52.102;8.084;2023-07-09T02:54:06;8.68;;;6.50;;
20531;SDS011;10424;52.102;8.084;2023-07-09T02:56:33;11.98;;;6.70;;
20531;SDS011;10424;52.102;8.084;2023-07-09T02:59:01;18.38;;;6.70;;
20531;SDS011;10424;52.102;8.084;2023-07-09T03:01:28;10.10;;;6.85;;
20531;SDS011;10424;52.102;8.084;2023-07-09T03:03:55;10.82;;;6.43;;
20531;SDS011;10424;52.102;8.084;2023-07-09T03:06:26;11.27;;;7.22;;
20531;SDS011;10424;52.102;8.084;2023-07-09T03:08:53;13.65;;;7.20;;
20531;SDS011;10424;52.102;8.084;2023-07-09T03:11:21;12.95;;;7.25;;
20531;SDS011;10424;52.102;8.084;2023-07-09T03:13:48;14.77;;;7.68;;
20531;SDS011;10424;52.102;8.084;2023-07-09T03:16:15;11.32;;;7.18;;
20531;SDS011;10424;52.102;8.084;2023-07-09T03:18:44;11.13;;;6.88;;
20531;SDS011;10424;52.102;8.084;2023-07-09T03:21:11;10.50;;;6.65;;
20531;SDS011;10424;52.102;8.084;2023-07-09T03:23:40;13.13;;;6.97;;
20531;SDS011;10424;52.102;8.084;2023-07-09T03:26:08;18.08;;;7.45;;
20531;SDS011;10424;52.102;8.084;2023-07-09T03:28:35;14.88;;;7.20;;
20531;SDS011;10424;52.102;8.084;2023-07-09T03:31:03;12.40;;;7.40;;
20531;SDS011;10424;52.102;8.084;2023-07-09T03:33:30;8.70;;;6.50;;
20531;SDS011;10424;52.102;8.084;2023-07-09T03:35:57;8.90;;;6.90;;
20531;SDS011;10424;52.102;8.084;2023-07-09T03:38:24;9.73;;;6.82;;
20531;SDS011;10424;52.102;8.084;2023-07-09T03:40:53;16.60;;;7.00;;
20531;SDS011;10424;52.102;8.084;2023-07-09T03:43:21;10.68;;;7.13;;
20531;SDS011;10424;52.102;8.084;2023-07-09T03:45:49;13.05;;;6.80;;
20531;SDS011;10424;52.102;8.084;2023-07-09T03:48:18;16.90;;;7.28;;
20531;SDS011;10424;52.102;8.084;2023-07-09T03:50:46;9.90;;;6.70;;
20531;SDS011;10424;52.102;8.084;2023-07-09T03:53:13;8.63;;;6.72;;
20531;SDS011;10424;52.102;8.084;2023-07-09T03:55:41;11.35;;;7.13;;
20531;SDS011;10424;52.102;8.084;2023-07-09T03:58:10;9.52;;;6.50;;
20531;SDS011;10424;52.102;8.084;2023-07-09T04:00:37;11.07;;;7.13;;
20531;SDS011;10424;52.102;8.084;2023-07-09T04:03:05;9.50;;;6.70;;
20531;SDS011;10424;52.102;8.084;2023-07-09T04:05:33;9.43;;;6.78;;
20531;SDS011;10424;52.102;8.084;2023-07-09T04:08:01;10.65;;;7.00;;
20531;SDS011;10424;52.102;8.084;2023-07-09T04:10:28;11.40;;;6.95;;
20531;SDS011;10424;52.102;8.084;2023-07-09T04:12:55;10.20;;;7.03;;
20531;SDS011;10424;52.102;8.084;2023-07-09T04:15:24;10.38;;;7.18;;
20531;SDS011;10424;52.102;8.084;2023-07-09T04:17:51;10.20;;;6.88;;
20531;SDS011;10424;52.102;8.084;2023-07-09T04:20:19;9.63;;;6.70;;
20531;SDS011;10424;52.102;8.084;2023-07-09T04:22:47;9.00;;;6.47;;
20531;SDS011;10424;52.102;8.084;2023-07-09T04:25:14;10.45;;;6.68;;
20531;SDS011;10424;52.102;8.084;2023-07-09T04:27:42;13.45;;;6.90;;
20531;SDS011;10424;52.102;8.084;2023-07-09T04:30:10;11.70;;;6.80;;
20531;SDS011;10424;52.102;8.084;2023-07-09T04:32:39;9.73;;;6.90;;
20531;SDS011;10424;52.102;8.084;2023-07-09T04:35:11;11.93;;;6.65;;
20531;SDS011;10424;52.102;8.084;2023-07-09T04:37:39;9.15;;;6.93;;
20531;SDS011;10424;52.102;8.084;2023-07-09T04:40:07;9.40;;;6.60;;
20531;SDS011;10424;52.102;8.084;2023-07-09T04:42:37;10.38;;;6.68;;
20531;SDS011;10424;52.102;8.084;2023-07-09T04:45:05;9.13;;;6.93;;
20531;SDS011;10424;52.102;8.084;2023-07-09T04:47:33;9.07;;;7.05;;
20531;SDS011;10424;52.102;8.084;2023-07-09T04:50:02;10.13;;;7.20;;
20531;SDS011;10424;52.102;8.084;2023-07-09T04:52:29;12.55;;;7.20;;
20531;SDS011;10424;52.102;8.084;2023-07-09T04:54:57;11.73;;;7.20;;
20531;SDS011;10424;52.102;8.084;2023-07-09T04:57:25;10.07;;;7.60;;
20531;SDS011;10424;52.102;8.084;2023-07-09T04:59:52;11.13;;;7.22;;
20531;SDS011;10424;52.102;8.084;2023-07-09T05:02:19;9.20;;;6.65;;
20531;SDS011;10424;52.102;8.084;2023-07-09T05:04:47;9.07;;;6.68;;
20531;SDS011;10424;52.102;8.084;2023-07-09T05:07:15;9.88;;;6.30;;
20531;SDS011;10424;52.102;8.084;2023-07-09T05:09:43;11.63;;;6.30;;
20531;SDS011;10424;52.102;8.084;2023-07-09T05:12:10;9.60;;;6.18;;
20531;SDS011;10424;52.102;8.084;2023-07-09T05:14:39;9.40;;;6.60;;
20531;SDS011;10424;52.102;8.084;2023-07-09T05:17:07;9.32;;;6.68;;
20531;SDS011;10424;52.102;8.084;2023-07-09T05:19:35;11.52;;;6.80;;
20531;SDS011;10424;52.102;8.084;2023-07-09T05:22:02;10.98;;;6.65;;
20531;SDS011;10424;52.102;8.084;2023-07-09T05:24:31;9.48;;;6.88;;
20531;SDS011;10424;52.102;8.084;2023-07-09T05:26:58;8.38;;;6.28;;
20531;SDS011;10424;52.102;8.084;2023-07-09T05:29:26;10.75;;;6.72;;
20531;SDS011;10424;52.102;8.084;2023-07-09T05:31:53;10.75;;;6.40;;
20531;SDS011;10424;52.102;8.084;2023-07-09T05:34:20;8.40;;;6.40;;
20531;SDS011;10424;52.102;8.084;2023-07-09T05:36:47;9.60;;;6.68;;
20531;SDS011;10424;52.102;8.084;2023-07-09T05:39:15;8.48;;;6.68;;
20531;SDS011;10424;52.102;8.084;2023-07-09T05:41:44;10.30;;;6.32;;
20531;SDS011;10424;52.102;8.084;2023-07-09T05:44:11;10.10;;;6.88;;
20531;SDS011;10424;52.102;8.084;2023-07-09T05:46:38;9.55;;;6.85;;
20531;SDS011;10424;52.102;8.084;2023-07-09T05:49:06;8.73;;;6.35;;
20531;SDS011;10424;52.102;8.084;2023-07-09T05:51:33;13.35;;;7.30;;
20531;SDS011;10424;52.102;8.084;2023-07-09T05:54:01;10.38;;;6.70;;
20531;SDS011;10424;52.102;8.084;2023-07-09T05:56:28;10.73;;;7.05;;
20531;SDS011;10424;52.102;8.084;2023-07-09T05:58:57;11.70;;;6.80;;
20531;SDS011;10424;52.102;8.084;2023-07-09T06:01:24;11.90;;;7.18;;
20531;SDS011;10424;52.102;8.084;2023-07-09T06:03:52;11.50;;;7.00;;
20531;SDS011;10424;52.102;8.084;2023-07-09T06:06:21;11.13;;;6.90;;
20531;SDS011;10424;52.102;8.084;2023-07-09T06:08:49;9.52;;;7.13;;
20531;SDS011;10424;52.102;8.084;2023-07-09T06:11:16;11.57;;;6.75;;
20531;SDS011;10424;52.102;8.084;2023-07-09T06:13:44;9.18;;;6.80;;
20531;SDS011;10424;52.102;8.084;2023-07-09T06:16:12;9.55;;;7.00;;
20531;SDS011;10424;52.102;8.084;2023-07-09T06:18:40;14.73;;;7.53;;
20531;SDS011;10424;52.102;8.084;2023-07-09T06:21:07;11.38;;;7.13;;
20531;SDS011;10424;52.102;8.084;2023-07-09T06:23:36;15.00;;;8.63;;
20531;SDS011;10424;52.102;8.084;2023-07-09T06:26:04;11.00;;;6.95;;
20531;SDS011;10424;52.102;8.084;2023-07-09T06:28:31;9.95;;;6.93;;
20531;SDS011;10424;52.102;8.084;2023-07-09T06:30:59;9.45;;;6.78;;
20531;SDS011;10424;52.102;8.084;2023-07-09T06:33:28;8.93;;;6.57;;
20531;SDS011;10424;52.102;8.084;2023-07-09T06:35:56;9.90;;;6.60;;
20531;SDS011;10424;52.102;8.084;2023-07-09T06:38:24;11.73;;;7.38;;
20531;SDS011;10424;52.102;8.084;2023-07-09T06:40:51;12.85;;;6.85;;
20531;SDS011;10424;52.102;8.084;2023-07-09T06:43:19;8.52;;;6.70;;
20531;SDS011;10424;52.102;8.084;2023-07-09T06:45:50;10.55;;;7.40;;
20531;SDS011;10424;52.102;8.084;2023-07-09T06:48:18;10.32;;;7.20;;
20531;SDS011;10424;52.102;8.084;2023-07-09T06:50:46;13.00;;;7.13;;
20531;SDS011;10424;52.102;8.084;2023-07-09T06:53:14;12.68;;;6.72;;
20531;SDS011;10424;52.102;8.084;2023-07-09T06:55:41;11.07;;;6.68;;
20531;SDS011;10424;52.102;8.084;2023-07-09T06:58:08;9.40;;;6.50;;
20531;SDS011;10424;52.102;8.084;2023-07-09T07:00:36;10.57;;;7.07;;
20531;SDS011;10424;52.102;8.084;2023-07-09T07:03:04;12.65;;;6.65;;
20531;SDS011;10424;52.102;8.084;2023-07-09T07:05:31;8.10;;;6.35;;
20531;SDS011;10424;52.102;8.084;2023-07-09T07:08:00;9.57;;;6.38;;
20531;SDS011;10424;52.102;8.084;2023-07-09T07:10:28;11.30;;;6.60;;
20531;SDS011;10424;52.102;8.084;2023-07-09T07:12:55;8.43;;;6.03;;
20531;SDS011;10424;52.102;8.084;2023-07-09T07:15:23;9.35;;;6.10;;
20531;SDS011;10424;52.102;8.084;2023-07-09T07:17:50;8.15;;;5.78;;
20531;SDS011;10424;52.102;8.084;2023-07-09T07:20:17;8.98;;;6.10;;
20531;SDS011;10424;52.102;8.084;2023-07-09T07:22:45;8.02;;;5.60;;
20531;SDS011;10424;52.102;8.084;2023-07-09T07:25:13;7.18;;;5.50;;
20531;SDS011;10424;52.102;8.084;2023-07-09T07:27:41;9.73;;;5.97;;
20531;SDS011;10424;52.102;8.084;2023-07-09T07:30:08;7.03;;;5.75;;
20531;SDS011;10424;52.102;8.084;2023-07-09T07:32:36;7.65;;;5.65;;
20531;SDS011;10424;52.102;8.084;2023-07-09T07:35:05;9.32;;;5.70;;
20531;SDS011;10424;52.102;8.084;2023-07-09T07:37:42;8.10;;;5.53;;
20531;SDS011;10424;52.102;8.084;2023-07-09T07:40:09;8.98;;;5.57;;
20531;SDS011;10424;52.102;8.084;2023-07-09T07:42:38;9.40;;;5.82;;
20531;SDS011;10424;52.102;8.084;2023-07-09T07:45:06;8.85;;;5.28;;
20531;SDS011;10424;52.102;8.084;2023-07-09T07:47:33;9.32;;;5.70;;
20531;SDS011;10424;52.102;8.084;2023-07-09T07:50:00;7.93;;;5.30;;
20531;SDS011;10424;52.102;8.084;2023-07-09T07:52:28;7.75;;;5.47;;
20531;SDS011;10424;52.102;8.084;2023-07-09T07:54:55;8.40;;;5.70;;
20531;SDS011;10424;52.102;8.084;2023-07-09T07:57:23;8.45;;;5.38;;
20531;SDS011;10424;52.102;8.084;2023-07-09T07:59:52;8.32;;;5.47;;
20531;SDS011;10424;52.102;8.084;2023-07-09T08:02:20;7.05;;;5.22;;
20531;SDS011;10424;52.102;8.084;2023-07-09T08:04:47;8.15;;;5.38;;
20531;SDS011;10424;52.102;8.084;2023-07-09T08:07:16;9.02;;;5.28;;
20531;SDS011;10424;52.102;8.084;2023-07-09T08:09:44;8.02;;;4.97;;
20531;SDS011;10424;52.102;8.084;2023-07-09T08:12:12;10.30;;;5.50;;
20531;SDS011;10424;52.102;8.084;2023-07-09T08:14:41;7.47;;;4.78;;
20531;SDS011;10424;52.102;8.084;2023-07-09T08:17:10;9.13;;;5.28;;
20531;SDS011;10424;52.102;8.084;2023-07-09T08:19:44;10.18;;;5.13;;
20531;SDS011;10424;52.102;8.084;2023-07-09T08:22:12;8.32;;;4.88;;
20531;SDS011;10424;52.102;8.084;2023-07-09T08:24:40;7.97;;;4.78;;
20531;SDS011;10424;52.102;8.084;2023-07-09T08:27:07;6.03;;;5.03;;
20531;SDS011;10424;52.102;8.084;2023-07-09T08:29:35;9.50;;;4.85;;
20531;SDS011;10424;52.102;8.084;2023-07-09T08:32:02;9.60;;;4.68;;
20531;SDS011;10424;52.102;8.084;2023-07-09T08:34:31;9.10;;;4.80;;
20531;SDS011;10424;52.102;8.084;2023-07-09T08:36:59;6.05;;;4.63;;
20531;SDS011;10424;52.102;8.084;2023-07-09T08:39:26;9.52;;;4.35;;
20531;SDS011;10424;52.102;8.084;2023-07-09T08:41:54;5.75;;;4.43;;
20531;SDS011;10424;52.102;8.084;2023-07-09T08:47:06;7.25;;;4.25;;
20531;SDS011;10424;52.102;8.084;2023-07-09T08:49:37;9.95;;;4.53;;
20531;SDS011;10424;52.102;8.084;2023-07-09T08:52:07;6.00;;;4.32;;
20531;SDS011;10424;52.102;8.084;2023-07-09T08:54:36;7.53;;;4.47;;
20531;SDS011;10424;52.102;8.084;2023-07-09T08:57:08;8.48;;;4.63;;
20531;SDS011;10424;52.102;8.084;2023-07-09T08:59:36;6.65;;;4.25;;
20531;SDS011;10424;52.102;8.084;2023-07-09T09:02:05;4.85;;;3.70;;
20531;SDS011;10424;52.102;8.084;2023-07-09T09:04:43;7.47;;;4.10;;
20531;SDS011;10424;52.102;8.084;2023-07-09T09:07:14;7.57;;;4.30;;
20531;SDS011;10424;52.102;8.084;2023-07-09T09:09:44;7.82;;;4.05;;
20531;SDS011;10424;52.102;8.084;2023-07-09T09:12:13;5.18;;;3.78;;
20531;SDS011;10424;52.102;8.084;2023-07-09T09:14:43;8.43;;;4.18;;
20531;SDS011;10424;52.102;8.084;2023-07-09T09:17:11;7.65;;;4.30;;
20531;SDS011;10424;52.102;8.084;2023-07-09T09:19:44;6.55;;;4.10;;
20531;SDS011;10424;52.102;8.084;2023-07-09T09:22:13;6.63;;;4.30;;
20531;SDS011;10424;52.102;8.084;2023-07-09T09:24:43;5.90;;;4.20;;
20531;SDS011;10424;52.102;8.084;2023-07-09T09:27:14;6.30;;;4.57;;
20531;SDS011;10424;52.102;8.084;2023-07-09T09:29:41;6.78;;;4.45;;
20531;SDS011;10424;52.102;8.084;2023-07-09T09:32:15;8.02;;;4.43;;
20531;SDS011;10424;52.102;8.084;2023-07-09T09:34:46;7.22;;;4.30;;
20531;SDS011;10424;52.102;8.084;2023-07-09T09:37:15;9.05;;;4.13;;
20531;SDS011;10424;52.102;8.084;2023-07-09T09:39:48;7.65;;;4.38;;
20531;SDS011;10424;52.102;8.084;2023-07-09T09:42:16;6.32;;;4.50;;
20531;SDS011;10424;52.102;8.084;2023-07-09T09:44:43;8.40;;;4.60;;
20531;SDS011;10424;52.102;8.084;2023-07-09T09:47:11;7.35;;;4.40;;
20531;SDS011;10424;52.102;8.084;2023-07-09T09:49:39;7.18;;;4.40;;
20531;SDS011;10424;52.102;8.084;2023-07-09T09:52:11;8.05;;;4.57;;
20531;SDS011;10424;52.102;8.084;2023-07-09T09:54:40;7.00;;;4.57;;
20531;SDS011;10424;52.102;8.084;2023-07-09T09:57:15;6.80;;;4.32;;
20531;SDS011;10424;52.102;8.084;2023-07-09T09:59:44;6.15;;;4.35;;
20531;SDS011;10424;52.102;8.084;2023-07-09T10:02:14;8.88;;;4.65;;
20531;SDS011;10424;52.102;8.084;2023-07-09T10:04:42;6.32;;;4.50;;
20531;SDS011;10424;52.102;8.084;2023-07-09T10:07:14;8.13;;;4.43;;
20531;SDS011;10424;52.102;8.084;2023-07-09T10:09:44;7.35;;;4.30;;
20531;SDS011;10424;52.102;8.084;2023-07-09T10:12:16;12.23;;;4.78;;
20531;SDS011;10424;52.102;8.084;2023-07-09T10:14:45;6.38;;;4.10;;
20531;SDS011;10424;52.102;8.084;2023-07-09T10:17:18;10.73;;;4.40;;
20531;SDS011;10424;52.102;8.084;2023-07-09T10:19:48;9.18;;;4.32;;
20531;SDS011;10424;52.102;8.084;2023-07-09T10:22:22;6.75;;;4.40;;
20531;SDS011;10424;52.102;8.084;2023-07-09T10:24:51;7.43;;;4.38;;
20531;SDS011;10424;52.102;8.084;2023-07-09T10:27:22;6.32;;;4.63;;
20531;SDS011;10424;52.102;8.084;2023-07-09T10:30:01;6.68;;;4.38;;
20531;SDS011;10424;52.102;8.084;2023-07-09T10:32:40;6.68;;;4.53;;
20531;SDS011;10424;52.102;8.084;2023-07-09T10:35:12;8.85;;;4.47;;
20531;SDS011;10424;52.102;8.084;2023-07-09T10:37:46;8.70;;;4.32;;
20531;SDS011;10424;52.102;8.084;2023-07-09T10:40:17;8.43;;;4.70;;
20531;SDS011;10424;52.102;8.084;2023-07-09T10:42:46;7.05;;;4.00;;
20531;SDS011;10424;52.102;8.084;2023-07-09T10:45:16;7.40;;;4.07;;
20531;SDS011;10424;52.102;8.084;2023-07-09T10:47:48;10.80;;;4.10;;
20531;SDS011;10424;52.102;8.084;2023-07-09T10:50:19;8.23;;;4.13;;
20531;SDS011;10424;52.102;8.084;2023-07-09T10:52:51;7.55;;;4.25;;
20531;SDS011;10424;52.102;8.084;2023-07-09T10:55:21;6.03;;;3.80;;
20531;SDS011;10424;52.102;8.084;2023-07-09T10:57:54;5.75;;;3.80;;
20531;SDS011;10424;52.102;8.084;2023-07-09T11:00:24;7.13;;;3.85;;
20531;SDS011;10424;52.102;8.084;2023-07-09T11:02:56;8.52;;;4.10;;
20531;SDS011;10424;52.102;8.084;2023-07-09T11:05:25;8.00;;;3.97;;
20531;SDS011;10424;52.102;8.084;2023-07-09T11:07:56;8.23;;;3.97;;
20531;SDS011;10424;52.102;8.084;2023-07-09T11:10:26;5.57;;;3.88;;
20531;SDS011;10424;52.102;8.084;2023-07-09T11:12:57;6.32;;;4.05;;
20531;SDS011;10424;52.102;8.084;2023-07-09T11:15:27;7.43;;;4.10;;
20531;SDS011;10424;52.102;8.084;2023-07-09T11:17:57;8.18;;;4.22;;
20531;SDS011;10424;52.102;8.084;2023-07-09T11:20:25;7.57;;;4.40;;
20531;SDS011;10424;52.102;8.084;2023-07-09T11:23:01;5.93;;;4.20;;
20531;SDS011;10424;52.102;8.084;2023-07-09T11:25:31;8.30;;;4.28;;
20531;SDS011;10424;52.102;8.084;2023-07-09T11:28:02;6.32;;;3.97;;
20531;SDS011;10424;52.102;8.084;2023-07-09T11:30:30;4.68;;;3.60;;
20531;SDS011;10424;52.102;8.084;2023-07-09T11:32:58;5.13;;;3.97;;
20531;SDS011;10424;52.102;8.084;2023-07-09T11:35:26;5.55;;;3.90;;
20531;SDS011;10424;52.102;8.084;2023-07-09T11:37:54;7.18;;;3.88;;
20531;SDS011;10424;52.102;8.084;2023-07-09T11:40:25;7.32;;;3.63;;
20531;SDS011;10424;52.102;8.084;2023-07-09T11:42:53;8.25;;;3.70;;
20531;SDS011;10424;52.102;8.084;2023-07-09T11:45:23;7.72;;;3.85;;
20531;SDS011;10424;52.102;8.084;2023-07-09T11:47:53;8.48;;;3.85;;
20531;SDS011;10424;52.102;8.084;2023-07-09T11:50:22;7.70;;;4.00;;
20531;SDS011;10424;52.102;8.084;2023-07-09T11:52:51;7.75;;;3.90;;
20531;SDS011;10424;52.102;8.084;2023-07-09T11:55:22;5.05;;;3.80;;
20531;SDS011;10424;52.102;8.084;2023-07-09T11:57:56;5.93;;;3.70;;
20531;SDS011;10424;52.102;8.084;2023-07-09T12:00:24;8.10;;;3.70;;
20531;SDS011;10424;52.102;8.084;2023-07-09T12:02:53;5.45;;;4.18;;
20531;SDS011;10424;52.102;8.084;2023-07-09T12:05:21;8.98;;;4.03;;
20531;SDS011;10424;52.102;8.084;2023-07-09T12:07:49;6.63;;;3.78;;
20531;SDS011;10424;52.102;8.084;2023-07-09T12:10:18;5.97;;;4.40;;
20531;SDS011;10424;52.102;8.084;2023-07-09T12:12:46;9.68;;;4.50;;
20531;SDS011;10424;52.102;8.084;2023-07-09T12:15:17;6.00;;;4.60;;
20531;SDS011;10424;52.102;8.084;2023-07-09T12:17:52;5.80;;;4.15;;
20531;SDS011;10424;52.102;8.084;2023-07-09T12:20:19;5.68;;;4.00;;
20531;SDS011;10424;52.102;8.084;2023-07-09T12:22:47;8.32;;;4.32;;
20531;SDS011;10424;52.102;8.084;2023-07-09T12:25:18;6.53;;;3.90;;
20531;SDS011;10424;52.102;8.084;2023-07-09T12:27:46;9.30;;;4.20;;
20531;SDS011;10424;52.102;8.084;2023-07-09T12:30:14;5.13;;;3.80;;
20531;SDS011;10424;52.102;8.084;2023-07-09T12:32:45;8.10;;;4.28;;
20531;SDS011;10424;52.102;8.084;2023-07-09T12:35:15;7.90;;;4.10;;
20531;SDS011;10424;52.102;8.084;2023-07-09T12:37:43;6.85;;;4.20;;
20531;SDS011;10424;52.102;8.084;2023-07-09T12:40:12;8.60;;;4.20;;
20531;SDS011;10424;52.102;8.084;2023-07-09T12:42:41;7.00;;;4.22;;
20531;SDS011;10424;52.102;8.084;2023-07-09T12:45:13;8.07;;;4.05;;
20531;SDS011;10424;52.102;8.084;2023-07-09T12:47:40;7.38;;;4.00;;
20531;SDS011;10424;52.102;8.084;2023-07-09T12:50:15;8.13;;;3.90;;
20531;SDS011;10424;52.102;8.084;2023-07-09T12:52:47;8.40;;;4.18;;
20531;SDS011;10424;52.102;8.084;2023-07-09T12:55:21;6.78;;;4.35;;
20531;SDS011;10424;52.102;8.084;2023-07-09T12:57:48;7.32;;;4.43;;
20531;SDS011;10424;52.102;8.084;2023-07-09T13:00:16;7.30;;;4.15;;
20531;SDS011;10424;52.102;8.084;2023-07-09T13:02:44;12.93;;;4.55;;
20531;SDS011;10424;52.102;8.084;2023-07-09T13:05:19;6.50;;;4.60;;
20531;SDS011;10424;52.102;8.084;2023-07-09T13:07:49;7.60;;;4.53;;
20531;SDS011;10424;52.102;8.084;2023-07-09T13:10:18;7.95;;;4.50;;
20531;SDS011;10424;52.102;8.084;2023-07-09T13:12:46;10.57;;;4.43;;
20531;SDS011;10424;52.102;8.084;2023-07-09T13:15:24;8.38;;;4.60;;
20531;SDS011;10424;52.102;8.084;2023-07-09T13:17:56;7.60;;;3.95;;
20531;SDS011;10424;52.102;8.084;2023-07-09T13:20:25;6.80;;;4.22;;
20531;SDS011;10424;52.102;8.084;2023-07-09T13:22:52;11.77;;;4.88;;
20531;SDS011;10424;52.102;8.084;2023-07-09T13:25:20;10.63;;;4.35;;
20531;SDS011;10424;52.102;8.084;2023-07-09T13:27:47;8.85;;;4.32;;
20531;SDS011;10424;52.102;8.084;2023-07-09T13:30:15;9.82;;;4.63;;
20531;SDS011;10424;52.102;8.084;2023-07-09T13:32:43;7.38;;;4.25;;
20531;SDS011;10424;52.102;8.084;2023-07-09T13:35:14;6.40;;;4.15;;
20531;SDS011;10424;52.102;8.084;2023-07-09T13:37:43;7.03;;;4.40;;
20531;SDS011;10424;52.102;8.084;2023-07-09T13:40:12;8.23;;;4.38;;
20531;SDS011;10424;52.102;8.084;2023-07-09T13:42:40;9.15;;;4.40;;
20531;SDS011;10424;52.102;8.084;2023-07-09T13:45:15;6.40;;;4.40;;
20531;SDS011;10424;52.102;8.084;2023-07-09T13:47:42;6.90;;;4.20;;
20531;SDS011;10424;52.102;8.084;2023-07-09T13:50:10;8.60;;;4.13;;
20531;SDS011;10424;52.102;8.084;2023-07-09T13:52:37;7.22;;;4.20;;
20531;SDS011;10424;52.102;8.084;2023-07-09T13:55:08;11.02;;;4.30;;
20531;SDS011;10424;52.102;8.084;2023-07-09T13:57:36;7.70;;;4.47;;
20531;SDS011;10424;52.102;8.084;2023-07-09T14:00:04;7.05;;;4.25;;
20531;SDS011;10424;52.102;8.084;2023-07-09T14:02:33;7.90;;;4.47;;
20531;SDS011;10424;52.102;8.084;2023-07-09T14:05:00;6.20;;;4.57;;
20531;SDS011;10424;52.102;8.084;2023-07-09T14:07:30;8.13;;;4.20;;
20531;SDS011;10424;52.102;8.084;2023-07-09T14:09:57;6.65;;;4.10;;
20531;SDS011;10424;52.102;8.084;2023-07-09T14:12:26;10.13;;;4.43;;
20531;SDS011;10424;52.102;8.084;2023-07-09T14:14:55;7.53;;;4.68;;
20531;SDS011;10424;52.102;8.084;2023-07-09T14:17:23;9.13;;;4.38;;
20531;SDS011;10424;52.102;8.084;2023-07-09T14:19:51;6.45;;;4.07;;
20531;SDS011;10424;52.102;8.084;2023-07-09T14:22:30;7.95;;;4.15;;
20531;SDS011;10424;52.102;8.084;2023-07-09T14:24:57;7.60;;;4.20;;
20531;SDS011;10424;52.102;8.084;2023-07-09T14:27:25;7.15;;;4.10;;
20531;SDS011;10424;52.102;8.084;2023-07-09T14:29:54;7.57;;;3.90;;
20531;SDS011;10424;52.102;8.084;2023-07-09T14:32:27;8.50;;;4.50;;
20531;SDS011;10424;52.102;8.084;2023-07-09T14:34:57;7.03;;;4.30;;
20531;SDS011;10424;52.102;8.084;2023-07-09T14:37:25;8.82;;;3.92;;
20531;SDS011;10424;52.102;8.084;2023-07-09T14:39:52;7.40;;;4.07;;
20531;SDS011;10424;52.102;8.084;2023-07-09T14:42:20;8.38;;;3.97;;
20531;SDS011;10424;52.102;8.084;2023-07-09T14:44:48;8.48;;;4.40;;
20531;SDS011;10424;52.102;8.084;2023-07-09T14:47:18;7.65;;;4.18;;
20531;SDS011;10424;52.102;8.084;2023-07-09T14:49:46;6.00;;;3.53;;
20531;SDS011;10424;52.102;8.084;2023-07-09T14:52:14;7.72;;;4.10;;
20531;SDS011;10424;52.102;8.084;2023-07-09T14:54:42;6.40;;;4.28;;